sensor_id;sensor_type;location;lat;lon;timestamp;P1;P2;P0
73749;PMS7003;62058;48.406;-4.514;2023-03-21T00:02:08;3.25;3.25;3.00
73749;PMS7003;62058;48.406;-4.514;2023-03-21T00:04:33;3.50;2.00;2.00
73749;PMS7003;62058;48.406;-4.514;2023-03-21T00:06:58;3.00;2.00;2.00
73749;PMS7003;62058;48.406;-4.514;2023-03-21T00:09:23;3.00;2.00;2.00
73749;PMS7003;62058;48.406;-4.514;2023-03-21T00:11:49;2.00;0.00;0.00
73749;PMS7003;62058;48.406;-4.514;2023-03-21T00:14:14;1.50;1.50;1.50
73749;PMS7003;62058;48.406;-4.514;2023-03-21T00:16:42;4.00;2.00;2.00
73749;PMS7003;62058;48.406;-4.514;2023-03-21T00:19:09;1.00;1.00;1.00
73749;PMS7003;62058;48.406;-4.514;2023-03-21T00:21:34;1.00;1.00;1.00
73749;PMS7003;62058;48.406;-4.514;2023-03-21T00:24:02;4.75;1.50;1.50
73749;PMS7003;62058;48.406;-4.514;2023-03-21T00:26:27;3.50;1.00;1.00
73749;PMS7003;62058;48.406;-4.514;2023-03-21T00:28:53;4.25;1.25;1.00
73749;PMS7003;62058;48.406;-4.514;2023-03-21T00:31:18;2.67;1.00;1.00
73749;PMS7003;62058;48.406;-4.514;2023-03-21T00:33:43;1.00;0.67;0.67
73749;PMS7003;62058;48.406;-4.514;2023-03-21T00:36:09;3.00;1.67;1.67
73749;PMS7003;62058;48.406;-4.514;2023-03-21T00:38:35;2.00;2.00;1.00
73749;PMS7003;62058;48.406;-4.514;2023-03-21T00:41:08;2.75;2.00;2.00
73749;PMS7003;62058;48.406;-4.514;2023-03-21T00:43:34;1.25;1.25;1.25
73749;PMS7003;62058;48.406;-4.514;2023-03-21T00:45:59;1.00;0.25;0.25
73749;PMS7003;62058;48.406;-4.514;2023-03-21T00:48:25;0.00;0.00;0.00
73749;PMS7003;62058;48.406;-4.514;2023-03-21T00:50:51;1.50;0.50;0.50
73749;PMS7003;62058;48.406;-4.514;2023-03-21T00:53:18;2.00;0.00;0.00
73749;PMS7003;62058;48.406;-4.514;2023-03-21T00:55:43;1.00;1.00;1.00
73749;PMS7003;62058;48.406;-4.514;2023-03-21T00:58:08;1.00;1.00;1.00
73749;PMS7003;62058;48.406;-4.514;2023-03-21T01:00:34;2.00;2.00;2.00
73749;PMS7003;62058;48.406;-4.514;2023-03-21T01:03:01;1.00;1.00;1.00
73749;PMS7003;62058;48.406;-4.514;2023-03-21T01:05:30;0.75;0.75;0.75
73749;PMS7003;62058;48.406;-4.514;2023-03-21T01:08:14;0.00;0.00;0.00
73749;PMS7003;62058;48.406;-4.514;2023-03-21T01:10:40;2.00;0.00;0.00
73749;PMS7003;62058;48.406;-4.514;2023-03-21T01:13:06;0.00;0.00;0.00
73749;PMS7003;62058;48.406;-4.514;2023-03-21T01:15:32;0.50;0.00;0.00
73749;PMS7003;62058;48.406;-4.514;2023-03-21T01:17:57;0.00;0.00;0.00
73749;PMS7003;62058;48.406;-4.514;2023-03-21T01:20:22;0.00;0.00;0.00
73749;PMS7003;62058;48.406;-4.514;2023-03-21T01:22:47;3.00;0.00;0.00
73749;PMS7003;62058;48.406;-4.514;2023-03-21T01:25:13;0.00;0.00;0.00
73749;PMS7003;62058;48.406;-4.514;2023-03-21T01:27:38;2.00;0.00;0.00
73749;PMS7003;62058;48.406;-4.514;2023-03-21T01:30:03;1.00;1.00;1.00
73749;PMS7003;62058;48.406;-4.514;2023-03-21T01:32:29;0.50;0.00;0.00
73749;PMS7003;62058;48.406;-4.514;2023-03-21T01:34:54;2.00;1.00;1.00
73749;PMS7003;62058;48.406;-4.514;2023-03-21T01:37:19;0.50;0.50;0.00
73749;PMS7003;62058;48.406;-4.514;2023-03-21T01:39:45;1.00;1.00;1.00
73749;PMS7003;62058;48.406;-4.514;2023-03-21T01:42:13;4.67;1.67;1.67
73749;PMS7003;62058;48.406;-4.514;2023-03-21T01:44:58;0.00;0.00;0.00
73749;PMS7003;62058;48.406;-4.514;2023-03-21T01:47:24;1.25;1.25;1.25
73749;PMS7003;62058;48.406;-4.514;2023-03-21T01:49:50;1.00;0.00;0.00
73749;PMS7003;62058;48.406;-4.514;2023-03-21T01:52:17;3.00;0.75;0.50
73749;PMS7003;62058;48.406;-4.514;2023-03-21T01:54:43;0.00;0.00;0.00
73749;PMS7003;62058;48.406;-4.514;2023-03-21T01:57:12;2.25;1.00;1.00
73749;PMS7003;62058;48.406;-4.514;2023-03-21T01:59:44;0.00;0.00;0.00
73749;PMS7003;62058;48.406;-4.514;2023-03-21T02:02:11;1.00;0.00;0.00
73749;PMS7003;62058;48.406;-4.514;2023-03-21T02:04:38;2.00;0.00;0.00
73749;PMS7003;62058;48.406;-4.514;2023-03-21T02:07:06;0.00;0.00;0.00
73749;PMS7003;62058;48.406;-4.514;2023-03-21T02:09:34;1.75;1.00;1.00
73749;PMS7003;62058;48.406;-4.514;2023-03-21T02:12:01;2.75;0.00;0.00
73749;PMS7003;62058;48.406;-4.514;2023-03-21T02:14:26;4.00;1.00;1.00
73749;PMS7003;62058;48.406;-4.514;2023-03-21T02:17:00;5.00;1.00;1.00
73749;PMS7003;62058;48.406;-4.514;2023-03-21T02:27:14;8.50;2.00;1.50
73749;PMS7003;62058;48.406;-4.514;2023-03-21T02:32:37;4.00;1.00;1.00
73749;PMS7003;62058;48.406;-4.514;2023-03-21T02:37:38;0.75;0.00;0.00
73749;PMS7003;62058;48.406;-4.514;2023-03-21T02:40:09;3.00;1.00;1.00
73749;PMS7003;62058;48.406;-4.514;2023-03-21T02:45:20;4.00;1.25;1.00
73749;PMS7003;62058;48.406;-4.514;2023-03-21T02:50:14;2.50;0.00;0.00
73749;PMS7003;62058;48.406;-4.514;2023-03-21T02:52:39;0.00;0.00;0.00
73749;PMS7003;62058;48.406;-4.514;2023-03-21T02:55:08;8.75;2.00;1.50
73749;PMS7003;62058;48.406;-4.514;2023-03-21T02:57:38;5.00;0.50;0.50
73749;PMS7003;62058;48.406;-4.514;2023-03-21T03:00:03;3.50;0.00;0.00
73749;PMS7003;62058;48.406;-4.514;2023-03-21T03:02:33;6.25;1.00;1.00
73749;PMS7003;62058;48.406;-4.514;2023-03-21T03:04:58;5.50;1.00;1.00
73749;PMS7003;62058;48.406;-4.514;2023-03-21T03:10:02;5.00;2.67;1.33
73749;PMS7003;62058;48.406;-4.514;2023-03-21T03:20:24;4.00;1.00;1.00
73749;PMS7003;62058;48.406;-4.514;2023-03-21T03:22:57;1.50;1.00;0.75
73749;PMS7003;62058;48.406;-4.514;2023-03-21T03:25:28;6.50;2.00;2.00
73749;PMS7003;62058;48.406;-4.514;2023-03-21T03:27:55;4.00;1.00;1.00
73749;PMS7003;62058;48.406;-4.514;2023-03-21T03:30:23;4.75;2.00;2.00
73749;PMS7003;62058;48.406;-4.514;2023-03-21T03:32:52;5.50;1.00;1.00
73749;PMS7003;62058;48.406;-4.514;2023-03-21T03:35:18;5.75;1.00;0.75
73749;PMS7003;62058;48.406;-4.514;2023-03-21T03:37:45;3.50;1.00;1.00
73749;PMS7003;62058;48.406;-4.514;2023-03-21T03:42:53;6.50;1.00;0.00
73749;PMS7003;62058;48.406;-4.514;2023-03-21T03:45:26;1.75;0.00;0.00
73749;PMS7003;62058;48.406;-4.514;2023-03-21T03:50:31;5.67;1.00;1.00
73749;PMS7003;62058;48.406;-4.514;2023-03-21T03:53:01;4.75;2.00;2.00
73749;PMS7003;62058;48.406;-4.514;2023-03-21T03:55:28;5.50;1.00;0.75
73749;PMS7003;62058;48.406;-4.514;2023-03-21T03:57:58;3.75;1.00;1.00
73749;PMS7003;62058;48.406;-4.514;2023-03-21T04:00:23;8.50;1.00;1.00
73749;PMS7003;62058;48.406;-4.514;2023-03-21T04:02:49;3.50;1.00;1.00
73749;PMS7003;62058;48.406;-4.514;2023-03-21T04:05:15;1.00;1.00;1.00
73749;PMS7003;62058;48.406;-4.514;2023-03-21T04:07:45;1.00;1.00;1.00
73749;PMS7003;62058;48.406;-4.514;2023-03-21T04:10:10;1.00;1.00;0.00
73749;PMS7003;62058;48.406;-4.514;2023-03-21T04:12:36;0.00;0.00;0.00
73749;PMS7003;62058;48.406;-4.514;2023-03-21T04:15:01;0.00;0.00;0.00
73749;PMS7003;62058;48.406;-4.514;2023-03-21T04:17:26;1.00;0.00;0.00
73749;PMS7003;62058;48.406;-4.514;2023-03-21T04:19:51;1.33;1.33;0.00
73749;PMS7003;62058;48.406;-4.514;2023-03-21T04:22:17;9.67;9.67;5.00
73749;PMS7003;62058;48.406;-4.514;2023-03-21T04:24:42;87.67;73.67;38.00
73749;PMS7003;62058;48.406;-4.514;2023-03-21T04:27:08;90.00;76.00;33.75
73749;PMS7003;62058;48.406;-4.514;2023-03-21T04:29:34;91.00;77.75;30.25
73749;PMS7003;62058;48.406;-4.514;2023-03-21T04:31:59;50.00;45.67;19.00
73749;PMS7003;62058;48.406;-4.514;2023-03-21T04:34:25;79.50;66.75;10.25
73749;PMS7003;62058;48.406;-4.514;2023-03-21T04:36:55;113.00;110.67;36.00
73749;PMS7003;62058;48.406;-4.514;2023-03-21T04:39:20;147.25;143.75;0.25
73749;PMS7003;62058;48.406;-4.514;2023-03-21T04:41:46;148.00;148.00;1.75
73749;PMS7003;62058;48.406;-4.514;2023-03-21T04:44:12;147.50;147.50;1.00
73749;PMS7003;62058;48.406;-4.514;2023-03-21T04:46:38;147.40;147.40;0.00
73749;PMS7003;62058;48.406;-4.514;2023-03-21T04:49:04;22.50;22.50;10.25
73749;PMS7003;62058;48.406;-4.514;2023-03-21T04:51:31;111.00;108.50;24.00
73749;PMS7003;62058;48.406;-4.514;2023-03-21T04:53:56;133.75;133.75;32.25
73749;PMS7003;62058;48.406;-4.514;2023-03-21T04:56:25;14.50;14.50;8.25
73749;PMS7003;62058;48.406;-4.514;2023-03-21T04:58:56;0.00;0.00;0.00
73749;PMS7003;62058;48.406;-4.514;2023-03-21T05:01:21;1.00;1.00;1.00
73749;PMS7003;62058;48.406;-4.514;2023-03-21T05:03:47;0.00;0.00;0.00
73749;PMS7003;62058;48.406;-4.514;2023-03-21T05:06:12;16.00;16.00;7.67
73749;PMS7003;62058;48.406;-4.514;2023-03-21T05:08:37;0.00;0.00;0.00
73749;PMS7003;62058;48.406;-4.514;2023-03-21T05:11:03;8.50;8.50;7.25
73749;PMS7003;62058;48.406;-4.514;2023-03-21T05:13:28;0.00;0.00;0.00
73749;PMS7003;62058;48.406;-4.514;2023-03-21T05:15:54;0.00;0.00;0.00
73749;PMS7003;62058;48.406;-4.514;2023-03-21T05:18:19;7.00;7.00;4.75
73749;PMS7003;62058;48.406;-4.514;2023-03-21T05:20:49;11.00;11.00;6.75
73749;PMS7003;62058;48.406;-4.514;2023-03-21T05:23:18;66.00;56.50;25.50
73749;PMS7003;62058;48.406;-4.514;2023-03-21T05:25:43;15.00;15.00;5.00
73749;PMS7003;62058;48.406;-4.514;2023-03-21T05:28:08;85.33;71.00;30.67
73749;PMS7003;62058;48.406;-4.514;2023-03-21T05:30:33;94.33;78.67;27.33
73749;PMS7003;62058;48.406;-4.514;2023-03-21T05:32:59;37.33;35.33;18.00
73749;PMS7003;62058;48.406;-4.514;2023-03-21T05:35:24;7.50;7.50;5.00
73749;PMS7003;62058;48.406;-4.514;2023-03-21T05:37:49;114.00;110.00;36.00
73749;PMS7003;62058;48.406;-4.514;2023-03-21T05:40:15;78.75;66.25;31.50
73749;PMS7003;62058;48.406;-4.514;2023-03-21T05:42:40;111.00;110.00;28.50
73749;PMS7003;62058;48.406;-4.514;2023-03-21T05:45:06;118.67;113.67;36.33
73749;PMS7003;62058;48.406;-4.514;2023-03-21T05:47:31;127.75;125.25;13.00
73749;PMS7003;62058;48.406;-4.514;2023-03-21T05:49:57;87.50;75.00;34.25
73749;PMS7003;62058;48.406;-4.514;2023-03-21T05:52:22;118.00;118.00;39.33
73749;PMS7003;62058;48.406;-4.514;2023-03-21T05:54:48;107.25;101.50;19.75
73749;PMS7003;62058;48.406;-4.514;2023-03-21T05:57:13;152.00;150.25;1.00
73749;PMS7003;62058;48.406;-4.514;2023-03-21T05:59:38;135.75;135.00;1.00
73749;PMS7003;62058;48.406;-4.514;2023-03-21T06:02:03;117.33;112.33;0.00
73749;PMS7003;62058;48.406;-4.514;2023-03-21T06:04:29;110.75;100.00;2.75
73749;PMS7003;62058;48.406;-4.514;2023-03-21T06:06:54;168.00;167.00;30.50
73749;PMS7003;62058;48.406;-4.514;2023-03-21T06:09:20;142.00;142.00;26.33
73749;PMS7003;62058;48.406;-4.514;2023-03-21T06:11:47;68.25;57.50;23.00
73749;PMS7003;62058;48.406;-4.514;2023-03-21T06:14:12;3.00;0.75;0.50
73749;PMS7003;62058;48.406;-4.514;2023-03-21T06:16:38;0.00;0.00;0.00
73749;PMS7003;62058;48.406;-4.514;2023-03-21T06:19:03;3.00;0.00;0.00
73749;PMS7003;62058;48.406;-4.514;2023-03-21T06:21:28;7.33;5.00;5.00
73749;PMS7003;62058;48.406;-4.514;2023-03-21T06:23:54;65.00;55.67;30.00
73749;PMS7003;62058;48.406;-4.514;2023-03-21T06:26:19;63.33;55.00;27.00
73749;PMS7003;62058;48.406;-4.514;2023-03-21T06:28:47;86.75;72.00;33.75
73749;PMS7003;62058;48.406;-4.514;2023-03-21T06:31:12;89.25;77.50;42.50
73749;PMS7003;62058;48.406;-4.514;2023-03-21T06:33:37;74.00;60.33;28.33
73749;PMS7003;62058;48.406;-4.514;2023-03-21T06:36:03;111.67;109.33;37.00
73749;PMS7003;62058;48.406;-4.514;2023-03-21T06:38:28;123.75;123.75;19.75
73749;PMS7003;62058;48.406;-4.514;2023-03-21T06:40:53;19.25;19.25;2.75
73749;PMS7003;62058;48.406;-4.514;2023-03-21T06:43:19;3.00;0.00;0.00
73749;PMS7003;62058;48.406;-4.514;2023-03-21T06:45:44;1.67;0.00;0.00
73749;PMS7003;62058;48.406;-4.514;2023-03-21T06:48:10;24.50;24.50;9.25
73749;PMS7003;62058;48.406;-4.514;2023-03-21T06:50:35;8.67;8.00;7.00
73749;PMS7003;62058;48.406;-4.514;2023-03-21T06:53:00;140.00;137.00;19.00
73749;PMS7003;62058;48.406;-4.514;2023-03-21T06:55:26;128.75;127.00;24.50
73749;PMS7003;62058;48.406;-4.514;2023-03-21T06:57:53;85.50;70.75;33.50
73749;PMS7003;62058;48.406;-4.514;2023-03-21T07:00:18;105.50;96.25;35.50
73749;PMS7003;62058;48.406;-4.514;2023-03-21T07:02:44;25.75;22.50;9.75
73749;PMS7003;62058;48.406;-4.514;2023-03-21T07:05:10;3.50;3.50;3.50
73749;PMS7003;62058;48.406;-4.514;2023-03-21T07:07:35;32.25;32.25;23.25
73749;PMS7003;62058;48.406;-4.514;2023-03-21T07:10:01;15.00;9.75;6.25
73749;PMS7003;62058;48.406;-4.514;2023-03-21T07:12:26;0.00;0.00;0.00
73749;PMS7003;62058;48.406;-4.514;2023-03-21T07:14:51;25.00;18.33;4.67
73749;PMS7003;62058;48.406;-4.514;2023-03-21T15:44:22;1.50;0.00;0.00
73749;PMS7003;62058;48.406;-4.514;2023-03-21T15:46:51;0.00;0.00;0.00
73749;PMS7003;62058;48.406;-4.514;2023-03-21T15:49:18;0.25;0.00;0.00
73749;PMS7003;62058;48.406;-4.514;2023-03-21T15:51:57;0.00;0.00;0.00
73749;PMS7003;62058;48.406;-4.514;2023-03-21T15:56:51;1.50;0.00;0.00
73749;PMS7003;62058;48.406;-4.514;2023-03-21T15:59:18;0.75;0.00;0.00
73749;PMS7003;62058;48.406;-4.514;2023-03-21T16:01:48;3.00;0.00;0.00
73749;PMS7003;62058;48.406;-4.514;2023-03-21T16:04:15;0.00;0.00;0.00
73749;PMS7003;62058;48.406;-4.514;2023-03-21T16:09:23;0.00;0.00;0.00
73749;PMS7003;62058;48.406;-4.514;2023-03-21T16:11:52;0.00;0.00;0.00
73749;PMS7003;62058;48.406;-4.514;2023-03-21T16:14:18;1.75;0.00;0.00
73749;PMS7003;62058;48.406;-4.514;2023-03-21T16:16:44;1.00;0.00;0.00
73749;PMS7003;62058;48.406;-4.514;2023-03-21T16:19:13;0.50;0.00;0.00
73749;PMS7003;62058;48.406;-4.514;2023-03-21T16:21:44;5.00;1.00;1.00
73749;PMS7003;62058;48.406;-4.514;2023-03-21T16:24:11;1.00;0.00;0.00
73749;PMS7003;62058;48.406;-4.514;2023-03-21T16:26:41;2.00;0.00;0.00
73749;PMS7003;62058;48.406;-4.514;2023-03-21T16:29:09;0.00;0.00;0.00
73749;PMS7003;62058;48.406;-4.514;2023-03-21T16:31:36;1.50;0.00;0.00
73749;PMS7003;62058;48.406;-4.514;2023-03-21T16:34:01;0.25;0.25;0.25
73749;PMS7003;62058;48.406;-4.514;2023-03-21T16:36:30;1.00;0.00;0.00
73749;PMS7003;62058;48.406;-4.514;2023-03-21T16:38:55;0.50;0.00;0.00
73749;PMS7003;62058;48.406;-4.514;2023-03-21T16:41:22;0.00;0.00;0.00
73749;PMS7003;62058;48.406;-4.514;2023-03-21T16:43:47;1.00;0.00;0.00
73749;PMS7003;62058;48.406;-4.514;2023-03-21T16:46:14;1.00;0.00;0.00
73749;PMS7003;62058;48.406;-4.514;2023-03-21T16:48:40;4.67;1.00;1.00
73749;PMS7003;62058;48.406;-4.514;2023-03-21T16:51:05;2.75;0.00;0.00
73749;PMS7003;62058;48.406;-4.514;2023-03-21T16:53:30;0.00;0.00;0.00
73749;PMS7003;62058;48.406;-4.514;2023-03-21T16:55:55;0.50;0.00;0.00
73749;PMS7003;62058;48.406;-4.514;2023-03-21T16:58:26;4.00;0.00;0.00
73749;PMS7003;62058;48.406;-4.514;2023-03-21T17:00:52;1.00;0.00;0.00
73749;PMS7003;62058;48.406;-4.514;2023-03-21T17:03:17;3.50;0.00;0.00
73749;PMS7003;62058;48.406;-4.514;2023-03-21T17:05:43;2.50;0.00;0.00
73749;PMS7003;62058;48.406;-4.514;2023-03-21T17:08:12;0.25;0.00;0.00
73749;PMS7003;62058;48.406;-4.514;2023-03-21T17:10:38;0.00;0.00;0.00
73749;PMS7003;62058;48.406;-4.514;2023-03-21T17:13:03;2.50;0.25;0.25
73749;PMS7003;62058;48.406;-4.514;2023-03-21T17:15:28;2.00;0.00;0.00
73749;PMS7003;62058;48.406;-4.514;2023-03-21T17:17:54;1.75;0.25;0.00
73749;PMS7003;62058;48.406;-4.514;2023-03-21T17:20:21;1.75;0.25;0.25
73749;PMS7003;62058;48.406;-4.514;2023-03-21T17:22:47;3.00;0.00;0.00
73749;PMS7003;62058;48.406;-4.514;2023-03-21T17:25:12;3.25;0.75;0.75
73749;PMS7003;62058;48.406;-4.514;2023-03-21T17:27:38;2.50;0.00;0.00
73749;PMS7003;62058;48.406;-4.514;2023-03-21T17:30:06;0.75;0.00;0.00
73749;PMS7003;62058;48.406;-4.514;2023-03-21T17:32:35;1.00;1.00;1.00
73749;PMS7003;62058;48.406;-4.514;2023-03-21T17:35:01;0.00;0.00;0.00
73749;PMS7003;62058;48.406;-4.514;2023-03-21T17:37:26;0.00;0.00;0.00
73749;PMS7003;62058;48.406;-4.514;2023-03-21T17:39:51;1.25;0.00;0.00
73749;PMS7003;62058;48.406;-4.514;2023-03-21T17:42:16;1.75;0.25;0.25
73749;PMS7003;62058;48.406;-4.514;2023-03-21T17:44:44;0.25;0.00;0.00
73749;PMS7003;62058;48.406;-4.514;2023-03-21T17:47:10;2.25;0.00;0.00
73749;PMS7003;62058;48.406;-4.514;2023-03-21T17:49:35;7.00;1.00;0.50
73749;PMS7003;62058;48.406;-4.514;2023-03-21T17:52:00;3.00;0.00;0.00
73749;PMS7003;62058;48.406;-4.514;2023-03-21T17:54:26;1.67;1.00;0.67
73749;PMS7003;62058;48.406;-4.514;2023-03-21T17:56:51;5.00;0.33;0.00
73749;PMS7003;62058;48.406;-4.514;2023-03-21T17:59:16;2.00;0.00;0.00
73749;PMS7003;62058;48.406;-4.514;2023-03-21T18:01:42;2.00;0.00;0.00
73749;PMS7003;62058;48.406;-4.514;2023-03-21T18:04:07;4.00;1.00;1.00
73749;PMS7003;62058;48.406;-4.514;2023-03-21T18:06:33;0.00;0.00;0.00
73749;PMS7003;62058;48.406;-4.514;2023-03-21T18:08:59;2.25;0.00;0.00
73749;PMS7003;62058;48.406;-4.514;2023-03-21T18:11:24;3.00;1.00;1.00
73749;PMS7003;62058;48.406;-4.514;2023-03-21T18:13:50;2.75;0.00;0.00
73749;PMS7003;62058;48.406;-4.514;2023-03-21T18:16:18;2.50;1.00;1.00
73749;PMS7003;62058;48.406;-4.514;2023-03-21T18:18:44;3.00;0.25;0.25
73749;PMS7003;62058;48.406;-4.514;2023-03-21T18:21:11;2.75;1.00;1.00
73749;PMS7003;62058;48.406;-4.514;2023-03-21T18:23:37;4.00;0.00;0.00
73749;PMS7003;62058;48.406;-4.514;2023-03-21T18:26:02;6.00;0.00;0.00
73749;PMS7003;62058;48.406;-4.514;2023-03-21T18:28:28;0.00;0.00;0.00
73749;PMS7003;62058;48.406;-4.514;2023-03-21T18:30:53;2.75;1.00;1.00
73749;PMS7003;62058;48.406;-4.514;2023-03-21T18:33:18;3.00;0.50;0.50
73749;PMS7003;62058;48.406;-4.514;2023-03-21T18:35:44;1.00;0.50;0.50
73749;PMS7003;62058;48.406;-4.514;2023-03-21T18:38:09;0.00;0.00;0.00
73749;PMS7003;62058;48.406;-4.514;2023-03-21T18:40:36;2.00;0.25;0.25
73749;PMS7003;62058;48.406;-4.514;2023-03-21T18:43:01;1.33;0.00;0.00
73749;PMS7003;62058;48.406;-4.514;2023-03-21T18:45:26;2.00;0.00;0.00
73749;PMS7003;62058;48.406;-4.514;2023-03-21T18:47:52;0.00;0.00;0.00
73749;PMS7003;62058;48.406;-4.514;2023-03-21T18:50:17;2.50;0.00;0.00
73749;PMS7003;62058;48.406;-4.514;2023-03-21T18:52:43;0.00;0.00;0.00
73749;PMS7003;62058;48.406;-4.514;2023-03-21T18:55:08;2.00;0.00;0.00
73749;PMS7003;62058;48.406;-4.514;2023-03-21T18:57:34;2.50;0.75;0.75
73749;PMS7003;62058;48.406;-4.514;2023-03-21T19:00:02;0.00;0.00;0.00
73749;PMS7003;62058;48.406;-4.514;2023-03-21T19:02:34;0.00;0.00;0.00
73749;PMS7003;62058;48.406;-4.514;2023-03-21T19:04:59;2.50;0.00;0.00
73749;PMS7003;62058;48.406;-4.514;2023-03-21T19:07:25;1.00;0.00;0.00
73749;PMS7003;62058;48.406;-4.514;2023-03-21T19:09:50;0.67;0.00;0.00
73749;PMS7003;62058;48.406;-4.514;2023-03-21T19:12:15;0.00;0.00;0.00
73749;PMS7003;62058;48.406;-4.514;2023-03-21T19:14:41;3.00;0.00;0.00
73749;PMS7003;62058;48.406;-4.514;2023-03-21T19:17:06;1.00;1.00;1.00
73749;PMS7003;62058;48.406;-4.514;2023-03-21T19:19:32;2.00;0.00;0.00
73749;PMS7003;62058;48.406;-4.514;2023-03-21T19:24:22;1.00;0.00;0.00
73749;PMS7003;62058;48.406;-4.514;2023-03-21T19:26:48;3.00;0.00;0.00
73749;PMS7003;62058;48.406;-4.514;2023-03-21T19:29:13;15.00;1.00;0.00
73749;PMS7003;62058;48.406;-4.514;2023-03-21T19:31:42;3.00;0.00;0.00
73749;PMS7003;62058;48.406;-4.514;2023-03-21T19:34:13;5.00;1.00;1.00
73749;PMS7003;62058;48.406;-4.514;2023-03-21T19:36:39;0.00;0.00;0.00
73749;PMS7003;62058;48.406;-4.514;2023-03-21T19:41:31;3.75;1.00;1.00
73749;PMS7003;62058;48.406;-4.514;2023-03-21T19:43:56;7.75;0.00;0.00
73749;PMS7003;62058;48.406;-4.514;2023-03-21T19:46:21;4.00;0.00;0.00
73749;PMS7003;62058;48.406;-4.514;2023-03-21T19:48:48;2.50;0.00;0.00
73749;PMS7003;62058;48.406;-4.514;2023-03-21T19:51:14;3.00;1.00;1.00
73749;PMS7003;62058;48.406;-4.514;2023-03-21T19:53:39;2.75;1.50;1.00
73749;PMS7003;62058;48.406;-4.514;2023-03-21T19:56:04;0.00;0.00;0.00
73749;PMS7003;62058;48.406;-4.514;2023-03-21T19:58:42;0.50;0.50;0.00
73749;PMS7003;62058;48.406;-4.514;2023-03-21T20:01:08;1.50;0.00;0.00
73749;PMS7003;62058;48.406;-4.514;2023-03-21T20:03:33;4.00;1.00;1.00
73749;PMS7003;62058;48.406;-4.514;2023-03-21T20:06:07;0.00;0.00;0.00
73749;PMS7003;62058;48.406;-4.514;2023-03-21T20:08:33;4.00;0.00;0.00
73749;PMS7003;62058;48.406;-4.514;2023-03-21T20:10:59;2.00;0.25;0.25
73749;PMS7003;62058;48.406;-4.514;2023-03-21T20:13:25;4.50;0.25;0.00
73749;PMS7003;62058;48.406;-4.514;2023-03-21T20:15:50;0.00;0.00;0.00
73749;PMS7003;62058;48.406;-4.514;2023-03-21T20:18:16;1.75;1.00;1.00
73749;PMS7003;62058;48.406;-4.514;2023-03-21T20:20:42;1.75;0.00;0.00
73749;PMS7003;62058;48.406;-4.514;2023-03-21T20:23:08;0.00;0.00;0.00
73749;PMS7003;62058;48.406;-4.514;2023-03-21T20:25:33;10.50;1.00;1.00
73749;PMS7003;62058;48.406;-4.514;2023-03-21T20:27:59;1.00;0.00;0.00
73749;PMS7003;62058;48.406;-4.514;2023-03-21T20:30:24;2.75;1.00;1.00
73749;PMS7003;62058;48.406;-4.514;2023-03-21T20:32:50;1.00;1.00;1.00
73749;PMS7003;62058;48.406;-4.514;2023-03-21T20:35:16;5.25;1.50;0.50
73749;PMS7003;62058;48.406;-4.514;2023-03-21T20:37:42;1.00;1.00;1.00
73749;PMS7003;62058;48.406;-4.514;2023-03-21T20:40:11;3.00;3.00;1.33
73749;PMS7003;62058;48.406;-4.514;2023-03-21T20:42:37;0.00;0.00;0.00
73749;PMS7003;62058;48.406;-4.514;2023-03-21T20:45:03;0.75;0.75;0.50
73749;PMS7003;62058;48.406;-4.514;2023-03-21T20:47:28;1.00;0.00;0.00
73749;PMS7003;62058;48.406;-4.514;2023-03-21T20:49:53;0.75;0.00;0.00
73749;PMS7003;62058;48.406;-4.514;2023-03-21T20:52:21;4.75;1.00;1.00
73749;PMS7003;62058;48.406;-4.514;2023-03-21T20:54:46;1.00;0.00;0.00
73749;PMS7003;62058;48.406;-4.514;2023-03-21T20:57:11;1.00;0.00;0.00
73749;PMS7003;62058;48.406;-4.514;2023-03-21T20:59:37;2.25;0.00;0.00
73749;PMS7003;62058;48.406;-4.514;2023-03-21T21:02:02;3.25;0.00;0.00
73749;PMS7003;62058;48.406;-4.514;2023-03-21T21:04:28;0.00;0.00;0.00
73749;PMS7003;62058;48.406;-4.514;2023-03-21T21:06:55;0.00;0.00;0.00
73749;PMS7003;62058;48.406;-4.514;2023-03-21T21:09:20;3.00;0.00;0.00
73749;PMS7003;62058;48.406;-4.514;2023-03-21T21:11:45;3.50;0.00;0.00
73749;PMS7003;62058;48.406;-4.514;2023-03-21T21:14:13;4.25;0.00;0.00
73749;PMS7003;62058;48.406;-4.514;2023-03-21T21:16:39;4.00;1.00;1.00
73749;PMS7003;62058;48.406;-4.514;2023-03-21T21:19:04;1.75;1.00;0.00
73749;PMS7003;62058;48.406;-4.514;2023-03-21T21:21:29;2.00;0.00;0.00
73749;PMS7003;62058;48.406;-4.514;2023-03-21T21:23:55;3.50;0.00;0.00
73749;PMS7003;62058;48.406;-4.514;2023-03-21T21:26:20;2.25;0.00;0.00
73749;PMS7003;62058;48.406;-4.514;2023-03-21T21:28:46;3.25;1.00;0.75
73749;PMS7003;62058;48.406;-4.514;2023-03-21T21:31:15;4.50;1.00;1.00
73749;PMS7003;62058;48.406;-4.514;2023-03-21T21:33:41;1.50;0.50;0.50
73749;PMS7003;62058;48.406;-4.514;2023-03-21T21:36:07;0.75;0.00;0.00
73749;PMS7003;62058;48.406;-4.514;2023-03-21T21:38:33;4.00;0.00;0.00
73749;PMS7003;62058;48.406;-4.514;2023-03-21T21:41:01;3.75;0.75;0.25
73749;PMS7003;62058;48.406;-4.514;2023-03-21T21:43:27;4.50;0.00;0.00
73749;PMS7003;62058;48.406;-4.514;2023-03-21T21:45:52;6.75;0.00;0.00
73749;PMS7003;62058;48.406;-4.514;2023-03-21T21:48:18;0.50;0.50;0.00
73749;PMS7003;62058;48.406;-4.514;2023-03-21T21:50:43;5.25;0.00;0.00
73749;PMS7003;62058;48.406;-4.514;2023-03-21T21:53:11;1.00;0.00;0.00
73749;PMS7003;62058;48.406;-4.514;2023-03-21T21:55:36;3.25;0.50;0.50
73749;PMS7003;62058;48.406;-4.514;2023-03-21T21:58:02;6.00;0.00;0.00
73749;PMS7003;62058;48.406;-4.514;2023-03-21T22:00:31;9.00;0.50;0.50
73749;PMS7003;62058;48.406;-4.514;2023-03-21T22:02:57;8.50;1.25;1.00
73749;PMS7003;62058;48.406;-4.514;2023-03-21T22:05:23;5.00;1.50;1.25
73749;PMS7003;62058;48.406;-4.514;2023-03-21T22:07:49;2.00;0.00;0.00
73749;PMS7003;62058;48.406;-4.514;2023-03-21T22:10:16;3.50;0.00;0.00
73749;PMS7003;62058;48.406;-4.514;2023-03-21T22:12:41;1.25;0.25;0.25
73749;PMS7003;62058;48.406;-4.514;2023-03-21T22:15:07;5.25;0.00;0.00
73749;PMS7003;62058;48.406;-4.514;2023-03-21T22:17:33;3.00;0.00;0.00
73749;PMS7003;62058;48.406;-4.514;2023-03-21T22:19:59;2.00;1.00;1.00
73749;PMS7003;62058;48.406;-4.514;2023-03-21T22:22:24;2.00;0.25;0.25
73749;PMS7003;62058;48.406;-4.514;2023-03-21T22:24:49;4.00;0.75;0.00
73749;PMS7003;62058;48.406;-4.514;2023-03-21T22:27:15;2.75;1.00;1.00
73749;PMS7003;62058;48.406;-4.514;2023-03-21T22:29:40;2.50;2.00;2.00
73749;PMS7003;62058;48.406;-4.514;2023-03-21T22:32:06;12.00;2.00;1.00
73749;PMS7003;62058;48.406;-4.514;2023-03-21T22:34:34;0.00;0.00;0.00
73749;PMS7003;62058;48.406;-4.514;2023-03-21T22:36:59;4.75;1.00;1.00
73749;PMS7003;62058;48.406;-4.514;2023-03-21T22:39:26;0.75;0.50;0.50
73749;PMS7003;62058;48.406;-4.514;2023-03-21T22:41:52;1.00;1.00;1.00
73749;PMS7003;62058;48.406;-4.514;2023-03-21T22:44:18;2.75;0.00;0.00
73749;PMS7003;62058;48.406;-4.514;2023-03-21T22:46:43;0.75;0.75;0.50
73749;PMS7003;62058;48.406;-4.514;2023-03-21T22:49:09;2.50;0.75;0.75
73749;PMS7003;62058;48.406;-4.514;2023-03-21T22:51:34;3.75;1.00;1.00
73749;PMS7003;62058;48.406;-4.514;2023-03-21T22:53:59;6.50;0.75;0.75
73749;PMS7003;62058;48.406;-4.514;2023-03-21T22:56:25;2.00;0.00;0.00
73749;PMS7003;62058;48.406;-4.514;2023-03-21T22:58:50;2.33;0.00;0.00
73749;PMS7003;62058;48.406;-4.514;2023-03-21T23:01:15;3.75;0.00;0.00
73749;PMS7003;62058;48.406;-4.514;2023-03-21T23:03:40;4.00;1.00;1.00
73749;PMS7003;62058;48.406;-4.514;2023-03-21T23:06:06;1.00;1.00;0.75
73749;PMS7003;62058;48.406;-4.514;2023-03-21T23:08:31;2.25;0.50;0.50
73749;PMS7003;62058;48.406;-4.514;2023-03-21T23:10:57;7.50;1.00;1.00